Pagrindinis puslapis
METAR-TAF:

METAR-TAF

Oro uostai :

Fort Lauderdale Executive Airport

Fort Loderdeilas, Florida, Jungtinės Amerikos Valstijos

platuma: 26-12-00N, ilguma: 080-11-00W, Aukštis: 4 m

Dabartinis oras

Ataskaita buvo paskelbta 34 minutes, ne 06:53 UTC
Vėjas 7 kt iš Vakarų/Šiaurės Vakarų
Temperatūra 10°C
Drėgmė 76%
Slėgis 1023 hPa
Matomumas: 16.1 km
Giedras dangus

METAR: KFXE 280653Z AUTO 30007KT 10SM CLR 10/06 A3021 RMK AO2 SLP234 T01000056

Laikas: 02:27 (07:27 UTC)

Prognozė

Ataskaita buvo paskelbta 1 valandą ir 59 minutes, ne 05:28 UTC
Prognozė galioja nuo 28 metu 06 UTC su 29 metu 06 UTC
Vėjas 9 kt iš Vakarų/Šiaurės Vakarų
Matomumas: 10 km
Mažai debesys ne aukštis 5000 ft
Nuo 29 metu 0000 UTC
Vėjas 4 kt nuo kintamojo kryptimis
Matomumas: 10 km
Mažai debesys ne aukštis 3500 ft
Mažai debesys ne aukštis 25000 ft

TAF: KFXE 280528Z 2806/2906 30009KT P6SM FEW050 FM290000 VRB04KT P6SM FEW035 FEW250

Orai ataskaitas ir orų prognozės (METAR, TAF).

turimą stotys yra geltonos ir raudonos taškus žemėlapyje.

Perkelti pele per norėdami pamatyti stoties vardą.

Tada spustelėkite, norėdami matyti oro stebėjimo ir prognozės.

Norėdami pakeisti žemėlapį: spustelėkite ant žalios mygtukų su juodo kryžiaus žemyn,; žalią mygtuką su brūkšneliu, jei norite nutolinti; arba žalių rodyklių gretimoms žemėlapius.


METAR-TAF: